Time;durP1;ratioP1;P1;durP2;ratioP2;P2;SDS_P1;SDS_P2;PMS_P1;PMS_P2;Temp;Humidity;BMP_temperature;BMP_pressure;BME280_temperature;BME280_humidity;BME280_pressure;Samples;Min_cycle;Max_cycle;Signal;HPM_P1;HPM_P2
2021/03/28 00:02:05;;;;;;;11.45;3.50;;;;;;;3.07;80.37;100585.75;4993312;28;20050;-61
2021/03/28 00:04:43;;;;;;;8.07;3.40;;;;;;;3.10;80.32;100585.41;4993592;28;20117;-59
2021/03/28 00:07:08;;;;;;;9.23;3.63;;;;;;;3.11;80.32;100579.09;4992009;28;20088;-60
2021/03/28 00:09:34;;;;;;;8.27;3.30;;;;;;;3.27;79.16;100573.06;4993309;28;20062;-59
2021/03/28 00:12:05;;;;;;;7.25;3.20;;;;;;;3.25;79.49;100569.72;4993062;28;20513;-59
2021/03/28 00:14:41;;;;;;;5.82;2.90;;;;;;;3.34;79.33;100575.84;4993065;28;20034;-59
2021/03/28 00:17:19;;;;;;;7.60;3.17;;;;;;;3.26;80.05;100589.09;4991935;28;20041;-59
2021/03/28 00:19:52;;;;;;;6.38;3.70;;;;;;;3.24;80.14;100576.00;4993409;28;20092;-59
2021/03/28 00:22:20;;;;;;;11.48;3.88;;;;;;;3.24;79.94;100576.84;4976648;28;20046;-59
2021/03/28 00:25:26;;;;;;;8.63;3.45;;;;;;;3.24;80.31;100581.31;4976214;28;20034;-59
2021/03/28 00:27:52;;;;;;;7.80;3.30;;;;;;;3.34;79.91;100570.56;4991333;28;20129;-59
2021/03/28 00:30:25;;;;;;;11.82;3.70;;;;;;;3.40;79.99;100575.22;4991629;28;20053;-59
2021/03/28 00:32:57;;;;;;;10.45;3.58;;;;;;;3.39;79.64;100571.72;4992024;28;20089;-59
2021/03/28 00:35:34;;;;;;;7.88;3.40;;;;;;;3.41;80.08;100577.69;4975785;28;20488;-59
2021/03/28 00:38:04;;;;;;;8.05;3.20;;;;;;;3.40;79.98;100581.34;4977174;28;20386;-59
2021/03/28 00:40:30;;;;;;;12.75;4.13;;;;;;;3.43;79.92;100582.84;4975876;28;20042;-59
2021/03/28 00:43:25;;;;;;;10.65;3.78;;;;;;;3.45;79.85;100580.88;4975633;28;20392;-59
2021/03/28 00:45:56;;;;;;;11.80;4.00;;;;;;;3.46;79.93;100570.09;4978988;28;20108;-59
2021/03/28 00:48:24;;;;;;;;;;;;;;;3.56;79.41;100569.09;4976811;28;20354;-60
2021/03/28 00:51:03;;;;;;;9.80;3.55;;;;;;;3.61;79.19;100567.63;4991525;28;19926;-59
2021/03/28 00:53:42;;;;;;;9.57;3.60;;;;;;;3.61;79.40;100557.00;4991805;28;20050;-60
2021/03/28 00:56:12;;;;;;;8.68;3.45;;;;;;;3.61;79.68;100559.66;4991526;28;20035;-59
2021/03/28 00:59:01;;;;;;;7.95;3.72;;;;;;;3.58;79.90;100562.66;4991924;28;20030;-60
2021/03/28 01:01:31;;;;;;;8.95;3.38;;;;;;;3.55;80.38;100562.16;4991259;28;20485;-60
2021/03/28 01:04:35;;;;;;;10.23;3.72;;;;;;;3.63;80.03;100570.13;4992967;28;20030;-59
2021/03/28 01:07:21;;;;;;;7.30;3.20;;;;;;;3.65;79.85;100568.13;4992682;28;20042;-59
2021/03/28 01:10:15;;;;;;;10.73;3.72;;;;;;;3.67;79.38;100560.84;4975448;28;20130;-59
2021/03/28 01:13:18;;;;;;;10.13;3.65;;;;;;;3.73;79.11;100567.31;4991720;28;20133;-59
2021/03/28 01:16:08;;;;;;;10.45;3.85;;;;;;;3.67;79.83;100572.28;4991216;28;20035;-59
2021/03/28 01:18:52;;;;;;;8.93;2.97;;;;;;;3.70;79.68;100567.66;4993255;28;20034;-59
2021/03/28 01:21:17;;;;;;;10.85;3.22;;;;;;;3.74;79.23;100571.59;4991307;28;20065;-59
2021/03/28 01:23:44;;;;;;;10.02;3.60;;;;;;;3.71;79.89;100556.03;4992788;28;20392;-59
2021/03/28 01:26:28;;;;;;;11.77;3.53;;;;;;;3.71;79.47;100550.72;4978087;28;20137;-59
2021/03/28 01:28:59;;;;;;;9.07;3.50;;;;;;;3.69;79.60;100548.22;4996543;28;20384;-63
2021/03/28 01:31:30;;;;;;;8.05;3.40;;;;;;;3.77;79.39;100544.75;4994671;28;20397;-59
2021/03/28 01:34:04;;;;;;;11.82;3.78;;;;;;;3.76;79.17;100543.09;4996292;28;20432;-59
2021/03/28 01:36:37;;;;;;;8.40;3.78;;;;;;;3.76;79.23;100533.31;4995857;28;20058;-60
2021/03/28 01:39:22;;;;;;;10.82;3.97;;;;;;;3.78;79.05;100535.81;4994945;28;20050;-59
2021/03/28 01:41:55;;;;;;;8.85;3.65;;;;;;;3.83;78.71;100538.78;4994341;28;20507;-59
2021/03/28 01:44:29;;;;;;;8.25;3.17;;;;;;;3.83;78.55;100539.63;4996290;28;20485;-60
2021/03/28 01:47:17;;;;;;;13.23;4.13;;;;;;;3.82;78.68;100527.38;4995797;28;20038;-59
2021/03/28 01:50:04;;;;;;;8.85;3.25;;;;;;;3.90;78.45;100539.78;4995141;28;20140;-59
2021/03/28 01:52:40;;;;;;;11.23;3.42;;;;;;;3.89;78.27;100538.13;4996004;28;20043;-59
2021/03/28 01:55:42;;;;;;;8.75;3.47;;;;;;;3.87;78.48;100534.81;4994405;28;20413;-58
2021/03/28 01:58:25;;;;;;;12.18;3.67;;;;;;;3.86;78.55;100536.63;4996026;28;20030;-60
2021/03/28 02:01:07;;;;;;;9.02;3.67;;;;;;;3.87;78.31;100529.53;4977907;28;20038;-59
2021/03/28 02:03:41;;;;;;;9.77;3.53;;;;;;;3.90;77.99;100529.19;4994781;28;20110;-59
2021/03/28 02:06:12;;;;;;;11.90;3.55;;;;;;;3.87;78.32;100532.19;4994406;28;20129;-59
2021/03/28 02:09:00;;;;;;;11.27;3.95;;;;;;;3.89;78.39;100538.13;4996139;28;20050;-60
2021/03/28 02:11:44;;;;;;;8.45;3.60;;;;;;;3.86;78.96;100543.75;4995491;28;20556;-60
2021/03/28 02:14:28;;;;;;;10.93;3.70;;;;;;;3.81;79.23;100541.59;4996618;28;20372;-60
2021/03/28 02:17:13;;;;;;;7.32;3.35;;;;;;;3.77;79.84;100536.78;4995827;28;20047;-60
2021/03/28 02:19:48;;;;;;;7.88;3.63;;;;;;;3.75;79.57;100530.84;4995060;28;20026;-60
2021/03/28 02:22:22;;;;;;;9.77;3.60;;;;;;;3.72;79.83;100534.66;4994310;28;20046;-60
2021/03/28 02:24:58;;;;;;;12.48;4.10;;;;;;;3.72;79.48;100541.75;4979050;28;20034;-59
2021/03/28 02:27:42;;;;;;;9.73;3.90;;;;;;;3.73;80.16;100532.84;4994198;28;20042;-59
2021/03/28 02:30:07;;;;;;;8.95;3.65;;;;;;;3.74;79.77;100539.78;4995237;28;20042;-59
2021/03/28 02:33:02;;;;;;;13.00;4.10;;;;;;;3.72;79.76;100537.31;4995632;28;20026;-59
2021/03/28 02:35:58;;;;;;;10.45;3.83;;;;;;;3.70;80.05;100533.19;4994230;28;20042;-59
2021/03/28 02:38:35;;;;;;;8.23;3.60;;;;;;;3.66;80.18;100533.47;4995430;28;20038;-59
2021/03/28 02:41:08;;;;;;;13.80;4.35;;;;;;;3.67;80.11;100532.50;4993594;28;20046;-59
2021/03/28 02:43:39;;;;;;;9.40;3.92;;;;;;;3.70;80.05;100538.47;4995411;28;20439;-59
2021/03/28 02:46:14;;;;;;;11.30;4.05;;;;;;;3.56;80.32;100542.59;4994903;28;20046;-59
2021/03/28 02:48:44;;;;;;;13.02;4.20;;;;;;;3.48;80.75;100546.06;4979392;28;20052;-59
2021/03/28 02:51:51;;;;;;;8.13;3.92;;;;;;;3.40;80.91;100540.78;4994821;28;20069;-59
2021/03/28 02:54:19;;;;;;;12.65;4.10;;;;;;;3.39;81.06;100541.75;4994389;28;20030;-59
2021/03/28 02:57:19;;;;;;;9.50;4.25;;;;;;;3.34;80.96;100544.88;4993341;28;20038;-59
2021/03/28 03:00:23;;;;;;;7.93;3.88;;;;;;;3.33;80.96;100539.75;4993911;28;20037;-59
2021/03/28 03:03:01;;;;;;;12.13;3.90;;;;;;;3.34;80.83;100546.72;4971848;28;20127;-59
2021/03/28 03:05:50;;;;;;;11.65;4.15;;;;;;;3.36;80.74;100550.03;4977897;28;20045;-60
2021/03/28 03:08:19;;;;;;;10.60;4.30;;;;;;;3.36;80.68;100553.50;4993608;28;20023;-60
2021/03/28 03:11:06;;;;;;;8.15;3.55;;;;;;;3.34;80.57;100538.75;4977280;28;20096;-59
2021/03/28 03:14:11;;;;;;;9.65;3.97;;;;;;;3.34;80.74;100544.06;4993914;28;20384;-59
2021/03/28 03:16:58;;;;;;;9.40;3.88;;;;;;;3.36;80.73;100544.72;4963762;28;20038;-59
2021/03/28 03:19:29;;;;;;;11.63;4.45;;;;;;;3.30;80.63;100550.69;4994923;28;20437;-64
2021/03/28 03:22:01;;;;;;;;;;;;;;;3.22;80.81;100562.94;4994613;28;20046;-59
2021/03/28 03:24:51;;;;;;;10.07;4.38;;;;;;;3.22;81.33;100554.97;4994758;28;19914;-59
2021/03/28 03:27:41;;;;;;;15.18;4.15;;;;;;;3.22;80.37;100547.03;4994103;28;20089;-59
2021/03/28 03:30:36;;;;;;;13.00;4.50;;;;;;;3.19;80.43;100555.28;4994126;28;20097;-59
2021/03/28 03:33:25;;;;;;;11.50;4.10;;;;;;;3.16;80.51;100557.44;4992637;28;20038;-59
2021/03/28 03:36:00;;;;;;;15.60;4.45;;;;;;;3.14;80.98;100554.94;4993997;28;20050;-59
2021/03/28 03:38:47;;;;;;;12.48;4.10;;;;;;;3.07;81.10;100556.59;4993057;28;20426;-59
2021/03/28 03:41:40;;;;;;;10.10;4.20;;;;;;;3.08;80.58;100552.13;4993860;28;20141;-59
2021/03/28 03:44:14;;;;;;;9.50;4.60;;;;;;;3.08;80.89;100539.72;4994185;28;20065;-59
2021/03/28 03:47:05;;;;;;;16.58;5.20;;;;;;;3.02;81.24;100535.88;4992698;28;20400;-59
2021/03/28 03:49:39;;;;;;;9.20;4.50;;;;;;;3.05;81.51;100536.56;4992343;28;20492;-60
2021/03/28 03:52:18;;;;;;;10.43;4.30;;;;;;;3.00;81.23;100527.28;4976829;28;20100;-59
2021/03/28 03:55:15;;;;;;;9.48;4.28;;;;;;;3.04;81.42;100533.06;4993975;28;20465;-59
2021/03/28 03:57:46;;;;;;;10.10;4.50;;;;;;;3.01;81.74;100528.09;4944134;28;20034;-59
2021/03/28 04:00:22;;;;;;;10.60;4.63;;;;;;;3.04;81.57;100527.75;4992520;28;20041;-59
2021/03/28 04:02:56;;;;;;;8.75;4.25;;;;;;;3.03;81.73;100526.94;4992739;28;20137;-59
2021/03/28 04:05:47;;;;;;;10.07;4.45;;;;;;;3.03;81.87;100526.13;4992551;28;20476;-59
2021/03/28 04:08:57;;;;;;;10.45;4.65;;;;;;;2.96;82.30;100536.50;4962142;28;20069;-59
2021/03/28 04:11:41;;;;;;;9.73;4.90;;;;;;;3.07;81.87;100535.41;4960394;28;20054;-59
2021/03/28 04:14:12;;;;;;;11.05;4.90;;;;;;;2.99;82.05;100535.38;4993919;28;20125;-59
2021/03/28 04:16:55;;;;;;;13.55;4.70;;;;;;;3.14;81.43;100533.75;4993557;28;20378;-59
2021/03/28 04:19:38;;;;;;;10.90;5.00;;;;;;;3.14;81.61;100531.09;4993785;28;20101;-59
2021/03/28 04:22:22;;;;;;;15.63;5.28;;;;;;;3.18;81.49;100524.50;4993271;28;20050;-59
2021/03/28 04:24:52;;;;;;;10.00;4.35;;;;;;;3.24;81.06;100523.84;4993609;28;20045;-59
2021/03/28 04:27:36;;;;;;;8.27;4.25;;;;;;;3.21;81.24;100524.16;4991757;28;20129;-59
2021/03/28 04:30:02;;;;;;;15.10;4.60;;;;;;;3.19;81.14;100530.63;4993088;28;20042;-59
2021/03/28 04:32:52;;;;;;;9.82;4.90;;;;;;;3.18;81.41;100537.75;4993338;28;20029;-59
2021/03/28 04:35:32;;;;;;;14.43;4.80;;;;;;;3.17;81.23;100554.63;4992886;28;20042;-59
2021/03/28 04:38:35;;;;;;;13.82;4.95;;;;;;;3.09;81.72;100541.34;4992101;28;20033;-59
2021/03/28 04:41:25;;;;;;;14.18;5.20;;;;;;;3.14;81.54;100539.03;4991440;28;20039;-59
2021/03/28 04:44:26;;;;;;;13.52;5.07;;;;;;;3.16;81.73;100542.38;4992256;28;20054;-59
2021/03/28 04:47:09;;;;;;;10.50;4.93;;;;;;;3.20;81.25;100545.53;4978152;28;20536;-59
2021/03/28 04:49:58;;;;;;;18.00;5.07;;;;;;;3.24;81.26;100550.34;4993228;28;20515;-59
2021/03/28 04:52:23;;;;;;;8.18;4.72;;;;;;;3.23;81.06;100553.97;4976637;28;20204;-59
2021/03/28 04:54:56;;;;;;;11.77;5.13;;;;;;;3.26;81.21;100559.94;4993085;28;20480;-59
2021/03/28 04:57:36;;;;;;;10.82;4.90;;;;;;;3.26;80.78;100560.78;4991444;28;20050;-59
2021/03/28 05:00:02;;;;;;;11.02;4.75;;;;;;;3.25;80.88;100569.72;4994319;28;20092;-59
2021/03/28 05:02:49;;;;;;;10.88;5.00;;;;;;;3.34;80.11;100570.56;4996890;28;20116;-59
2021/03/28 05:05:23;;;;;;;9.65;4.78;;;;;;;3.40;79.59;100564.63;4995636;28;20306;-59
2021/03/28 05:08:09;;;;;;;12.60;4.93;;;;;;;3.45;79.57;100559.66;4996983;28;20050;-59
2021/03/28 05:10:38;;;;;;;12.40;5.15;;;;;;;3.39;79.82;100560.31;4996157;28;20069;-59
2021/03/28 05:13:34;;;;;;;12.20;4.65;;;;;;;3.37;80.13;100562.28;4997045;28;20448;-59
2021/03/28 05:16:14;;;;;;;9.85;4.18;;;;;;;3.46;79.66;100571.91;4996426;28;20038;-59
2021/03/28 05:19:11;;;;;;;12.43;5.00;;;;;;;3.47;79.82;100568.28;4996759;28;20113;-59
2021/03/28 05:21:39;;;;;;;12.40;5.35;;;;;;;3.52;79.47;100573.06;4971069;28;20042;-59
2021/03/28 05:24:10;;;;;;;12.80;5.22;;;;;;;3.45;79.69;100578.22;4996437;28;20500;-59
2021/03/28 05:27:07;;;;;;;12.18;5.28;;;;;;;3.44;79.66;100587.13;4996159;28;20050;-59
2021/03/28 05:29:51;;;;;;;12.35;5.15;;;;;;;3.45;79.54;100586.16;4996480;28;20061;-59
2021/03/28 05:32:40;;;;;;;12.25;5.25;;;;;;;3.46;79.73;100593.13;4995929;28;20393;-59
2021/03/28 05:35:56;;;;;;;11.00;5.20;;;;;;;3.49;80.02;100586.66;4995952;28;20030;-59
2021/03/28 05:38:46;;;;;;;9.93;4.78;;;;;;;3.49;80.07;100595.44;4936227;29;20036;-58
2021/03/28 05:41:42;;;;;;;9.68;4.45;;;;;;;3.41;80.03;100588.28;4935781;28;20060;-59
2021/03/28 05:44:10;;;;;;;13.30;5.07;;;;;;;3.42;80.57;100594.41;5004887;28;20129;-59
2021/03/28 05:47:13;;;;;;;9.93;5.22;;;;;;;3.39;81.33;100600.06;4995945;28;20046;-59
2021/03/28 05:49:43;;;;;;;13.35;5.22;;;;;;;3.33;81.07;100603.38;4996309;28;20125;-59
2021/03/28 05:52:41;;;;;;;11.18;4.95;;;;;;;3.39;81.24;100606.19;4994353;28;20073;-59
2021/03/28 05:55:43;;;;;;;18.08;5.72;;;;;;;3.38;80.86;100609.84;4994189;28;20033;-59
2021/03/28 05:58:38;;;;;;;12.45;5.55;;;;;;;3.45;80.65;100607.38;4996114;28;20109;-59
2021/03/28 06:01:43;;;;;;;13.65;5.60;;;;;;;3.43;81.01;100612.81;4995436;28;20229;-59
2021/03/28 06:04:36;;;;;;;10.13;4.95;;;;;;;3.52;80.55;100607.53;4995894;28;20022;-59
2021/03/28 06:07:39;;;;;;;11.57;5.25;;;;;;;3.70;80.09;100604.78;4995463;28;20046;-59
2021/03/28 06:10:35;;;;;;;14.27;5.80;;;;;;;3.75;79.87;100610.41;4994059;28;20054;-59
2021/03/28 06:13:27;;;;;;;10.20;4.93;;;;;;;4.03;78.78;100618.88;4995064;28;20345;-59
2021/03/28 06:16:10;;;;;;;14.13;5.20;;;;;;;4.38;77.60;100612.38;4995140;28;20349;-61
2021/03/28 06:18:49;;;;;;;10.40;4.70;;;;;;;4.78;75.97;100617.78;4995434;28;20090;-61
2021/03/28 06:21:39;;;;;;;10.88;4.68;;;;;;;4.64;75.98;100616.63;4993827;28;20504;-59
2021/03/28 06:24:32;;;;;;;14.15;6.40;;;;;;;4.73;76.76;100620.94;4995463;28;20038;-59
2021/03/28 06:27:06;;;;;;;9.60;5.22;;;;;;;4.45;76.50;100613.38;4994902;28;20489;-58
2021/03/28 06:29:56;;;;;;;10.27;6.05;;;;;;;4.70;76.29;100611.47;4994234;28;20096;-60
2021/03/28 06:32:36;;;;;;;8.17;4.50;;;;;;;4.63;76.80;100618.47;4993577;28;20046;-61
2021/03/28 06:35:06;;;;;;;11.45;5.40;;;;;;;5.17;75.71;100628.44;4994963;28;20380;-59
2021/03/28 06:38:09;;;;;;;16.55;5.80;;;;;;;5.11;74.45;100629.09;4995153;28;20469;-61
2021/03/28 06:40:45;;;;;;;11.27;6.55;;;;;;;6.25;70.18;100639.06;4994633;28;20038;-61
2021/03/28 06:43:35;;;;;;;10.23;5.35;;;;;;;7.78;64.36;100637.59;4977458;28;20034;-60
2021/03/28 06:46:25;;;;;;;11.52;4.95;;;;;;;6.59;67.79;100634.25;4992918;28;20481;-61
2021/03/28 06:49:16;;;;;;;8.88;4.53;;;;;;;5.45;71.72;100639.41;4995107;28;20385;-60
2021/03/28 06:51:53;;;;;;;9.40;3.93;;;;;;;5.49;70.57;100637.22;4994565;28;20070;-60
2021/03/28 06:54:56;;;;;;;10.00;5.05;;;;;;;4.89;74.02;100634.19;4994950;28;20377;-60
2021/03/28 06:57:59;;;;;;;7.97;4.30;;;;;;;4.80;74.82;100631.72;4993309;28;20064;-61
2021/03/28 07:00:51;;;;;;;11.32;5.55;;;;;;;5.05;74.29;100629.81;4994406;28;20054;-60
2021/03/28 07:03:41;;;;;;;12.20;5.57;;;;;;;5.11;74.76;100639.75;4979848;28;20121;-61
2021/03/28 07:06:34;;;;;;;11.77;5.20;;;;;;;5.34;73.74;100634.47;4994354;28;20096;-61
2021/03/28 07:09:19;;;;;;;11.57;5.07;;;;;;;5.41;73.96;100640.75;4994474;28;20790;-60
2021/03/28 07:12:03;;;;;;;12.63;5.00;;;;;;;5.30;74.66;100644.66;4962830;28;20155;-60
2021/03/28 07:14:54;;;;;;;6.72;4.03;;;;;;;5.19;75.11;100637.88;4994616;28;20117;-60
2021/03/28 07:17:54;;;;;;;7.55;3.75;;;;;;;5.51;74.42;100653.84;4993089;28;20042;-60
2021/03/28 07:20:22;;;;;;;11.30;5.40;;;;;;;5.71;74.73;100663.03;4962562;28;20066;-59
2021/03/28 07:23:06;;;;;;;15.50;5.45;;;;;;;5.44;73.98;100667.00;4994255;28;20042;-59
2021/03/28 07:25:50;;;;;;;12.32;5.45;;;;;;;5.72;74.11;100669.19;4994205;28;20129;-61
2021/03/28 07:28:57;;;;;;;6.15;4.00;;;;;;;5.64;74.17;100670.06;4993138;28;20044;-60
2021/03/28 07:32:00;;;;;;;13.95;5.93;;;;;;;5.84;73.89;100667.78;4945818;28;20125;-60
2021/03/28 07:35:02;;;;;;;10.52;4.85;;;;;;;5.84;73.84;100665.97;4994179;28;20030;-60
2021/03/28 07:37:52;;;;;;;8.98;5.05;;;;;;;5.99;73.50;100659.88;4993854;28;20564;-60
2021/03/28 07:40:45;;;;;;;11.20;5.18;;;;;;;6.07;73.18;100651.84;4993824;28;20029;-60
2021/03/28 07:43:41;;;;;;;10.20;4.95;;;;;;;6.13;72.93;100640.47;4992979;28;20504;-60
2021/03/28 07:46:51;;;;;;;9.70;4.70;;;;;;;6.69;70.82;100638.31;4993493;28;20034;-59
2021/03/28 07:49:35;;;;;;;8.43;4.40;;;;;;;7.34;68.07;100633.22;4978435;28;20389;-59
2021/03/28 07:52:38;;;;;;;12.73;5.45;;;;;;;8.80;62.56;100628.41;4992400;28;20110;-60
2021/03/28 07:55:20;;;;;;;8.95;4.05;;;;;;;8.96;62.61;100619.22;4992412;28;20117;-59
2021/03/28 07:58:03;;;;;;;9.77;4.82;;;;;;;9.98;57.85;100636.25;4992878;28;20030;-59
2021/03/28 08:00:46;;;;;;;9.88;4.13;;;;;;;10.89;56.65;100636.44;4992473;28;20073;-60
2021/03/28 08:03:45;;;;;;;8.57;4.28;;;;;;;10.90;54.74;100640.75;4993819;28;20034;-60
2021/03/28 08:06:48;;;;;;;9.70;4.38;;;;;;;10.62;56.46;100643.69;4993386;28;20049;-60
2021/03/28 08:09:35;;;;;;;10.23;3.85;;;;;;;10.98;55.04;100647.75;4993480;28;20049;-60
2021/03/28 08:12:21;;;;;;;12.50;4.22;;;;;;;11.41;53.64;100644.53;4993284;28;20042;-60
2021/03/28 08:15:14;;;;;;;11.82;4.20;;;;;;;11.26;53.93;100636.75;4976663;28;20053;-60
2021/03/28 08:18:06;;;;;;;9.70;4.10;;;;;;;11.54;52.74;100646.31;4993654;28;20046;-60
2021/03/28 08:20:59;;;;;;;9.48;3.95;;;;;;;12.10;51.79;100648.28;4970385;28;20042;-60
2021/03/28 08:23:52;;;;;;;12.35;4.72;;;;;;;11.00;53.12;100646.50;4992820;28;20116;-60
2021/03/28 08:26:40;;;;;;;8.73;3.50;;;;;;;10.64;54.99;100651.56;5001923;28;20034;-60
2021/03/28 08:29:06;;;;;;;12.25;4.10;;;;;;;10.50;55.22;100656.91;5011828;28;20029;-60
2021/03/28 08:31:51;;;;;;;11.48;4.07;;;;;;;10.24;55.28;100660.38;5012565;28;20037;-59
2021/03/28 08:34:50;;;;;;;9.90;3.55;;;;;;;10.64;55.60;100659.59;5001876;28;20069;-60
2021/03/28 08:37:27;;;;;;;9.18;3.60;;;;;;;10.19;56.74;100659.34;5012754;28;20034;-59
2021/03/28 08:40:30;;;;;;;10.27;4.03;;;;;;;9.57;57.21;100659.41;5013077;28;20097;-59
2021/03/28 08:43:33;;;;;;;11.80;3.97;;;;;;;8.98;58.29;100655.44;5012740;28;20093;-59
2021/03/28 08:46:25;;;;;;;10.00;3.47;;;;;;;8.62;60.62;100655.63;4992893;28;20122;-59
2021/03/28 08:49:01;;;;;;;8.63;3.70;;;;;;;8.33;60.85;100668.09;4992066;28;20473;-59
2021/03/28 08:51:27;;;;;;;12.15;4.22;;;;;;;8.41;61.17;100668.03;4975579;28;20042;-59
2021/03/28 08:54:19;;;;;;;10.82;4.28;;;;;;;8.25;60.88;100672.78;4993436;28;20045;-59
2021/03/28 08:56:59;;;;;;;14.60;3.92;;;;;;;8.35;61.17;100668.75;4993316;28;20133;-59
2021/03/28 08:59:42;;;;;;;6.35;3.13;;;;;;;8.24;62.03;100669.28;4992127;28;20120;-60
2021/03/28 09:02:35;;;;;;;9.23;3.50;;;;;;;8.46;61.03;100669.28;4991654;28;20038;-59
2021/03/28 09:05:14;;;;;;;10.85;3.85;;;;;;;8.62;61.14;100669.81;5007885;28;20338;-60
2021/03/28 09:07:42;;;;;;;13.13;3.40;;;;;;;8.45;60.27;100663.09;5000770;28;20060;-59
2021/03/28 09:10:25;;;;;;;7.90;3.40;;;;;;;8.61;61.05;100659.31;4994715;28;20084;-60
2021/03/28 09:13:26;;;;;;;9.85;3.80;;;;;;;8.74;60.84;100656.75;5011571;28;20018;-59
2021/03/28 09:16:02;;;;;;;9.48;3.83;;;;;;;8.72;60.79;100663.31;4959165;28;20054;-59
2021/03/28 09:18:34;;;;;;;10.70;3.60;;;;;;;9.37;59.68;100670.06;5011537;28;20042;-60
2021/03/28 09:21:13;;;;;;;10.85;3.70;;;;;;;9.32;59.21;100669.00;5012335;28;20133;-59
2021/03/28 09:23:40;;;;;;;10.48;3.67;;;;;;;9.71;58.31;100669.16;5011341;28;20026;-59
2021/03/28 09:26:05;;;;;;;10.60;3.75;;;;;;;9.16;57.80;100668.31;5010885;28;20117;-59
2021/03/28 09:28:50;;;;;;;11.57;3.65;;;;;;;9.25;58.58;100664.44;5011663;28;20113;-59
2021/03/28 09:31:28;;;;;;;8.35;2.83;;;;;;;8.99;58.53;100659.78;5007034;28;20043;-59
2021/03/28 09:34:19;;;;;;;8.75;3.33;;;;;;;9.48;58.38;100674.84;5021430;28;20477;-59
2021/03/28 09:37:06;;;;;;;9.80;3.58;;;;;;;9.95;56.81;100674.97;4988884;28;20066;-72
2021/03/28 09:40:06;;;;;;;10.50;3.55;;;;;;;9.98;57.33;100671.06;5011158;28;20030;-65
2021/03/28 09:42:59;;;;;;;11.85;3.90;;;;;;;9.87;56.36;100667.13;5002057;28;20088;-64
2021/03/28 09:45:40;;;;;;;10.25;3.40;;;;;;;9.98;56.50;100671.06;4990217;28;20129;-62
2021/03/28 09:48:24;;;;;;;;;;;;;;;10.01;57.30;100658.09;5007170;28;20516;-67
2021/03/28 09:51:08;;;;;;;11.27;3.42;;;;;;;10.10;54.92;100656.84;4993668;28;19926;-68
2021/03/28 09:53:43;;;;;;;10.57;2.95;;;;;;;10.65;50.98;100658.53;4996703;28;20038;-62
2021/03/28 09:56:33;;;;;;;7.85;3.03;;;;;;;10.56;53.39;100649.91;5003751;28;20086;-68
2021/03/28 09:59:07;;;;;;;9.70;3.30;;;;;;;11.21;50.56;100641.94;5004180;28;20457;-62
2021/03/28 10:01:58;;;;;;;9.88;3.47;;;;;;;12.60;49.79;100637.53;5015211;28;20114;-63
2021/03/28 10:04:29;;;;;;;12.20;3.22;;;;;;;11.77;50.70;100630.47;5013891;28;20026;-63
2021/03/28 10:07:01;;;;;;;12.20;3.05;;;;;;;11.12;50.35;100637.81;5015071;28;20034;-63
2021/03/28 10:10:01;;;;;;;9.68;3.17;;;;;;;11.26;51.12;100641.25;5013877;28;20507;-63
2021/03/28 10:12:46;;;;;;;9.35;3.38;;;;;;;11.42;49.63;100632.75;5011106;28;20141;-62
2021/03/28 10:15:16;;;;;;;7.28;2.72;;;;;;;11.49;48.89;100638.09;5009576;28;20137;-63
2021/03/28 10:17:58;;;;;;;7.88;2.83;;;;;;;11.91;50.82;100625.06;5013110;28;20033;-63
2021/03/28 10:20:34;;;;;;;8.88;2.80;;;;;;;12.66;47.42;100633.97;5013687;28;20038;-63
2021/03/28 10:23:07;;;;;;;7.43;2.85;;;;;;;13.22;46.21;100623.22;5014207;28;20029;-63
2021/03/28 10:25:51;;;;;;;10.50;3.10;;;;;;;13.29;44.94;100626.69;4996122;28;20511;-63
2021/03/28 10:28:41;;;;;;;8.15;2.28;;;;;;;14.32;40.45;100630.16;5010389;28;20537;-63
2021/03/28 10:31:15;;;;;;;9.52;2.38;;;;;;;14.67;38.27;100633.72;5013611;28;20137;-63
2021/03/28 10:34:31;;;;;;;7.25;2.17;;;;;;;13.10;41.56;100623.13;5014858;28;20029;-63
2021/03/28 10:37:16;;;;;;;9.65;2.40;;;;;;;12.98;41.48;100630.31;5001342;28;20042;-64
2021/03/28 10:40:06;;;;;;;8.13;2.55;;;;;;;12.89;40.97;100625.22;5013539;28;20102;-63
2021/03/28 10:42:37;;;;;;;6.10;2.33;;;;;;;13.46;38.38;100630.41;4994396;28;20240;-63
2021/03/28 10:45:36;;;;;;;8.10;2.13;;;;;;;12.91;42.13;100619.63;5009782;28;20085;-63
2021/03/28 10:48:24;;;;;;;6.57;2.28;;;;;;;11.89;42.02;100613.72;4995216;28;20107;-63
2021/03/28 10:51:11;;;;;;;7.57;2.33;;;;;;;12.68;40.91;100614.88;4993692;28;20038;-63
2021/03/28 10:53:42;;;;;;;6.65;2.42;;;;;;;14.12;38.06;100607.03;4995097;28;20035;-64
2021/03/28 10:56:26;;;;;;;7.65;2.15;;;;;;;13.30;40.92;100593.31;4994491;28;20042;-63
2021/03/28 10:59:13;;;;;;;5.22;2.20;;;;;;;13.90;38.99;100606.75;4994471;28;20026;-63
2021/03/28 11:01:45;;;;;;;7.10;2.35;;;;;;;14.46;38.08;100597.34;4994134;28;20124;-63
2021/03/28 11:04:37;;;;;;;7.88;2.53;;;;;;;13.66;39.22;100594.28;4994550;28;20030;-63
2021/03/28 11:07:09;;;;;;;6.68;2.00;;;;;;;13.97;37.38;100599.41;5008624;28;20125;-63
2021/03/28 11:09:47;;;;;;;10.13;2.75;;;;;;;14.71;38.30;100600.91;5012658;28;20123;-63
2021/03/28 11:12:19;;;;;;;7.38;2.10;;;;;;;14.58;37.14;100604.66;5012580;28;20042;-63
2021/03/28 11:14:51;;;;;;;8.65;2.50;;;;;;;13.69;37.93;100586.56;5014137;28;20101;-63
2021/03/28 11:17:54;;;;;;;6.10;2.10;;;;;;;13.01;39.06;100582.25;4996862;28;20376;-63
2021/03/28 11:20:34;;;;;;;5.28;1.98;;;;;;;12.90;38.53;100608.06;5012146;28;20392;-63
2021/03/28 11:23:22;;;;;;;7.70;2.47;;;;;;;13.44;38.50;100592.09;5014194;28;20121;-63
2021/03/28 11:26:19;;;;;;;6.88;2.05;;;;;;;13.05;39.25;100606.84;5013578;28;20437;-63
2021/03/28 11:29:09;;;;;;;6.82;2.53;;;;;;;14.24;37.09;100604.38;5014169;28;20026;-63
2021/03/28 11:31:59;;;;;;;12.63;2.50;;;;;;;14.30;38.37;100603.41;5013434;28;20500;-63
2021/03/28 11:34:27;;;;;;;5.57;2.20;;;;;;;14.01;37.41;100597.06;5012353;28;20068;-63
2021/03/28 11:36:52;;;;;;;10.50;2.65;;;;;;;13.77;38.38;100596.19;5013305;28;20066;-63
2021/03/28 11:39:22;;;;;;;5.55;2.13;;;;;;;13.99;37.86;100588.38;5013878;28;20049;-63
2021/03/28 11:42:01;;;;;;;8.45;2.40;;;;;;;13.78;39.62;100604.06;4979520;28;20555;-63
2021/03/28 11:44:31;;;;;;;7.88;2.42;;;;;;;14.16;37.83;100599.31;5012598;28;20041;-63
2021/03/28 11:46:58;;;;;;;7.38;2.40;;;;;;;14.37;37.52;100596.03;5012089;28;20029;-64
2021/03/28 11:49:29;;;;;;;7.53;2.45;;;;;;;14.32;37.77;100598.63;5012579;28;20032;-64
2021/03/28 11:51:54;;;;;;;10.27;2.63;;;;;;;13.89;39.32;100597.03;4996178;28;20117;-63
2021/03/28 11:54:21;;;;;;;8.35;2.38;;;;;;;14.07;37.86;100600.72;5013643;28;20104;-63
2021/03/28 11:57:05;;;;;;;9.70;2.50;;;;;;;14.35;38.24;100603.56;5011923;28;20034;-63
2021/03/28 11:59:43;;;;;;;8.27;2.65;;;;;;;14.33;37.10;100599.47;5013607;28;20026;-63
2021/03/28 12:02:12;;;;;;;9.25;2.72;;;;;;;14.28;38.67;100583.97;5012008;28;20060;-63
2021/03/28 12:04:41;;;;;;;10.55;2.67;;;;;;;14.99;36.56;100584.75;5013804;28;20037;-64
2021/03/28 12:07:29;;;;;;;6.55;2.42;;;;;;;14.65;37.04;100581.03;5013143;28;20127;-64
2021/03/28 12:10:01;;;;;;;5.68;2.30;;;;;;;14.23;38.35;100564.97;5011430;28;20104;-64
2021/03/28 12:12:33;;;;;;;8.90;2.38;;;;;;;14.10;37.26;100575.97;5013504;28;20056;-63
2021/03/28 12:15:37;;;;;;;7.63;2.40;;;;;;;14.61;37.29;100569.09;5012539;28;20026;-63
2021/03/28 12:18:39;;;;;;;7.57;2.50;;;;;;;14.59;37.29;100566.63;5013038;28;20467;-64
2021/03/28 12:21:08;;;;;;;6.25;2.40;;;;;;;14.83;36.51;100575.53;5011846;28;20046;-64
2021/03/28 12:23:43;;;;;;;6.57;2.50;;;;;;;14.96;37.57;100570.91;5013299;28;20113;-63
2021/03/28 12:26:25;;;;;;;6.95;2.33;;;;;;;14.78;38.04;100564.63;5013087;28;20420;-63
2021/03/28 12:28:59;;;;;;;9.32;2.60;;;;;;;15.00;37.60;100563.97;4997409;28;20042;-63
2021/03/28 12:31:27;;;;;;;11.13;2.50;;;;;;;14.87;35.79;100565.06;5011795;28;20034;-63
2021/03/28 12:34:08;;;;;;;7.57;2.60;;;;;;;14.57;36.55;100557.13;5013200;28;20033;-63
2021/03/28 12:36:59;;;;;;;8.02;2.42;;;;;;;14.67;36.67;100562.75;5012851;28;20042;-63
2021/03/28 12:39:35;;;;;;;6.60;2.58;;;;;;;14.88;35.47;100562.13;5011809;28;20028;-63
2021/03/28 12:42:03;;;;;;;7.55;2.40;;;;;;;14.95;35.99;100558.47;5005030;28;20062;-63